CDT,Max TemperatureF,Mean TemperatureF,Min TemperatureF,Max Dew PointF,MeanDew PointF,Min DewpointF,Max Humidity, Mean Humidity, Min Humidity, Max Sea Level PressureIn, Mean Sea Level PressureIn, Min Sea Level PressureIn, Max VisibilityMiles, Mean VisibilityMiles, Min VisibilityMiles, Max Wind SpeedMPH, Mean Wind SpeedMPH, Max Gust SpeedMPH,PrecipitationIn, CloudCover, Events, WindDirDegrees
2012-10-1,62,56,51,46,43,36,82,64,37,30.01,29.95,29.87,10,10,10,22,14,26,0.00,1,,321
2012-10-2,66,60,53,48,42,36,82,54,32,29.90,29.72,29.59,10,10,10,26,13,31,0.00,1,,195
2012-10-3,60,51,42,43,41,39,87,74,48,30.08,29.92,29.72,10,10,10,26,12,32,0.03,4,Rain,322
2012-10-4,42,38,33,39,37,32,93,90,81,30.05,29.89,29.73,10,9,3,36,25,45,0.38,8,Rain,360
2012-10-5,37,35,33,32,32,30,93,89,75,29.96,29.87,29.82,10,9,4,32,29,43,0.00,8,Rain-Snow,314
2012-10-6,41,38,35,30,29,27,81,73,57,30.18,30.12,30.03,10,10,10,15,13,21,0.00,0,,238
2012-10-7,42,38,33,34,29,27,81,69,57,30.01,29.83,29.71,10,10,10,20,12,,0.00,6,Rain,233
2012-10-8,42,40,39,37,36,34,93,86,76,29.71,29.58,29.50,10,10,7,9,4,,0.17,7,Rain,55
2012-10-9,39,37,35,37,31,21,93,82,56,29.91,29.71,29.54,10,10,4,24,12,31,0.11,7,Rain-Snow,341
2012-10-10,41,36,30,30,29,25,100,78,56,29.92,29.89,29.84,10,10,3,17,9,21,0.00,6,,261
2012-10-11,39,36,32,30,27,25,80,73,61,30.32,30.10,29.88,10,10,10,24,16,32,0.00,4,,298
2012-10-12,42,36,30,30,28,23,87,67,53,30.33,30.15,29.87,10,10,10,30,14,33,0.00,2,,193
2012-10-13,51,46,42,37,34,27,81,65,53,29.85,29.73,29.67,10,10,10,25,14,28,0.00,0,,150
2012-10-14,48,42,35,37,35,32,93,77,58,29.89,29.86,29.82,10,10,10,14,8,,0.00,1,,320
2012-10-15,51,44,37,41,39,34,93,79,62,29.87,29.74,29.53,10,10,10,18,7,,0.00,3,Rain,160
2012-10-16,53,48,42,45,42,37,93,80,67,29.52,29.42,29.29,10,10,10,15,7,,0.00,0,,143
2012-10-17,51,50,48,50,46,43,94,85,71,29.29,29.15,29.06,10,8,3,14,8,22,0.53,6,Rain,103
2012-10-18,50,47,44,48,46,43,100,93,87,29.60,29.34,29.13,10,9,3,23,12,29,0.16,8,Rain,19
2012-10-19,42,40,39,43,40,37,100,91,87,29.72,29.68,29.61,10,8,0,24,14,32,0.00,8,Fog-Rain,352
2012-10-20,46,44,42,45,43,41,100,93,87,29.71,29.68,29.64,10,8,0,17,9,17,0.00,8,Fog-Rain,164
2012-10-21,48,44,41,46,43,39,93,92,87,30.04,29.83,29.69,10,9,4,18,11,,0.01,6,Rain,236
2012-10-22,44,40,37,37,36,34,93,79,66,30.15,30.10,30.03,10,10,10,14,8,,0.00,3,,35
2012-10-23,46,44,42,46,42,36,100,88,71,30.03,29.79,29.64,10,8,2,17,10,26,0.81,8,Rain-Thunderstorm,110
2012-10-24,48,42,35,48,38,30,100,89,81,29.94,29.85,29.66,10,9,1,16,10,22,0.00,8,,274
2012-10-25,37,34,32,32,29,28,93,81,70,29.93,29.86,29.80,10,10,7,22,11,29,0.00,6,Snow,280
2012-10-26,33,30,28,30,25,19,93,79,64,30.17,30.07,29.87,10,9,1,25,18,32,0.00,8,Snow,265
2012-10-27,30,28,24,25,19,14,93,71,51,30.31,30.23,30.16,10,10,4,13,9,18,0.00,8,Snow,265
2012-10-28,30,26,23,19,14,10,86,62,47,30.33,30.31,30.30,10,10,10,10,5,,0.00,4,,326
2012-10-29,39,34,28,34,29,18,87,80,64,30.31,30.26,30.24,10,10,10,12,7,17,0.00,5,,108
2012-10-30,42,38,35,34,30,27,87,72,61,30.25,30.20,30.12,10,10,10,13,8,17,0.00,0,,124
2012-10-31,37,34,32,36,28,23,93,76,65,30.12,30.01,29.95,10,10,4,26,10,31,0.01,6,Rain-Snow,159